Weather at San Francisco International Airport

Public forecast

Using degrees Fahrenheit for public forecast. Weather courtesy of forecast.io.

Current aviation weather report (METAR) for San Francisco International Airport

Retrieved 2022/07/06 03:56 UTC (17 minutes ago):

KSFO 060356Z 29009KT 10SM FEW008 BKN023 19/14 A2994 RMK AO2 SLP139 T01890139

Aviation forecast (TAF) for San Francisco International Airport

Retrieved 2022-07-06 00:42 UTC (4 hours ago):

TAF KSFO 052340Z 0600/0706 29015G22KT P6SM FEW020 BKN025 FM060400 28012KT P6SM FEW015 BKN020 FM060700 26009KT P6SM BKN015 FM061100 VRB03KT P6SM BKN008 OVC018 TEMPO 0611/0614 BKN008 FM062000 27010KT P6SM SCT018 FM062300 27015G22KT P6SM FEW020